sensor_id;sensor_type;location;lat;lon;timestamp;P1;durP1;ratioP1;P2;durP2;ratioP2
27670;SDS011;15077;49.704;9.908;2023-01-08T00:02:07;8.30;;;6.57;;
27670;SDS011;15077;49.704;9.908;2023-01-08T00:04:34;8.85;;;6.75;;
27670;SDS011;15077;49.704;9.908;2023-01-08T00:07:00;7.65;;;5.55;;
27670;SDS011;15077;49.704;9.908;2023-01-08T00:09:26;6.75;;;5.28;;
27670;SDS011;15077;49.704;9.908;2023-01-08T00:11:52;8.07;;;6.13;;
27670;SDS011;15077;49.704;9.908;2023-01-08T00:14:17;10.55;;;8.00;;
27670;SDS011;15077;49.704;9.908;2023-01-08T00:16:43;6.97;;;5.68;;
27670;SDS011;15077;49.704;9.908;2023-01-08T00:19:12;8.85;;;6.38;;
27670;SDS011;15077;49.704;9.908;2023-01-08T00:21:38;8.82;;;5.63;;
27670;SDS011;15077;49.704;9.908;2023-01-08T00:24:04;7.97;;;5.88;;
27670;SDS011;15077;49.704;9.908;2023-01-08T00:26:30;8.38;;;6.15;;
27670;SDS011;15077;49.704;9.908;2023-01-08T00:28:56;7.20;;;5.80;;
27670;SDS011;15077;49.704;9.908;2023-01-08T00:31:22;8.00;;;5.60;;
27670;SDS011;15077;49.704;9.908;2023-01-08T00:33:48;8.55;;;6.45;;
27670;SDS011;15077;49.704;9.908;2023-01-08T00:36:15;7.57;;;5.90;;
27670;SDS011;15077;49.704;9.908;2023-01-08T00:38:43;8.75;;;5.80;;
27670;SDS011;15077;49.704;9.908;2023-01-08T00:41:10;9.60;;;6.25;;
27670;SDS011;15077;49.704;9.908;2023-01-08T00:43:39;9.95;;;7.10;;
27670;SDS011;15077;49.704;9.908;2023-01-08T00:46:05;10.15;;;7.15;;
27670;SDS011;15077;49.704;9.908;2023-01-08T00:48:31;7.97;;;6.15;;
27670;SDS011;15077;49.704;9.908;2023-01-08T00:51:02;7.70;;;5.82;;
27670;SDS011;15077;49.704;9.908;2023-01-08T00:53:30;10.07;;;6.90;;
27670;SDS011;15077;49.704;9.908;2023-01-08T00:56:03;6.97;;;5.47;;
27670;SDS011;15077;49.704;9.908;2023-01-08T00:58:32;7.45;;;6.35;;
27670;SDS011;15077;49.704;9.908;2023-01-08T01:01:00;12.55;;;6.65;;
27670;SDS011;15077;49.704;9.908;2023-01-08T01:03:34;9.07;;;6.55;;
27670;SDS011;15077;49.704;9.908;2023-01-08T01:06:02;8.85;;;6.78;;
27670;SDS011;15077;49.704;9.908;2023-01-08T01:08:29;8.27;;;6.07;;
27670;SDS011;15077;49.704;9.908;2023-01-08T01:10:57;7.75;;;5.97;;
27670;SDS011;15077;49.704;9.908;2023-01-08T01:13:22;8.27;;;6.10;;
27670;SDS011;15077;49.704;9.908;2023-01-08T01:15:57;9.35;;;6.80;;
27670;SDS011;15077;49.704;9.908;2023-01-08T01:18:24;6.93;;;6.03;;
27670;SDS011;15077;49.704;9.908;2023-01-08T01:20:50;7.20;;;5.72;;
27670;SDS011;15077;49.704;9.908;2023-01-08T01:23:16;7.20;;;5.78;;
27670;SDS011;15077;49.704;9.908;2023-01-08T01:25:42;7.80;;;5.78;;
27670;SDS011;15077;49.704;9.908;2023-01-08T01:28:08;7.03;;;5.18;;
27670;SDS011;15077;49.704;9.908;2023-01-08T01:30:34;8.25;;;5.90;;
27670;SDS011;15077;49.704;9.908;2023-01-08T01:33:00;9.15;;;6.05;;
27670;SDS011;15077;49.704;9.908;2023-01-08T01:35:26;8.70;;;7.05;;
27670;SDS011;15077;49.704;9.908;2023-01-08T01:37:52;5.97;;;4.93;;
27670;SDS011;15077;49.704;9.908;2023-01-08T01:40:18;7.57;;;5.28;;
27670;SDS011;15077;49.704;9.908;2023-01-08T01:42:44;5.57;;;4.50;;
27670;SDS011;15077;49.704;9.908;2023-01-08T01:45:22;6.90;;;6.05;;
27670;SDS011;15077;49.704;9.908;2023-01-08T01:47:58;6.80;;;5.40;;
27670;SDS011;15077;49.704;9.908;2023-01-08T01:50:31;6.57;;;5.45;;
27670;SDS011;15077;49.704;9.908;2023-01-08T01:53:08;6.78;;;5.28;;
27670;SDS011;15077;49.704;9.908;2023-01-08T01:55:39;6.53;;;4.60;;
27670;SDS011;15077;49.704;9.908;2023-01-08T02:00:57;4.97;;;3.97;;
27670;SDS011;15077;49.704;9.908;2023-01-08T02:03:29;6.38;;;4.13;;
27670;SDS011;15077;49.704;9.908;2023-01-08T02:12:36;4.43;;;2.90;;
27670;SDS011;15077;49.704;9.908;2023-01-08T02:21:02;6.40;;;5.20;;
27670;SDS011;15077;49.704;9.908;2023-01-08T02:23:48;6.20;;;4.90;;
27670;SDS011;15077;49.704;9.908;2023-01-08T02:26:35;7.90;;;5.93;;
27670;SDS011;15077;49.704;9.908;2023-01-08T02:31:43;6.32;;;4.80;;
27670;SDS011;15077;49.704;9.908;2023-01-08T02:34:10;5.72;;;3.63;;
27670;SDS011;15077;49.704;9.908;2023-01-08T02:42:22;4.60;;;3.60;;
27670;SDS011;15077;49.704;9.908;2023-01-08T02:50:35;6.30;;;4.32;;
27670;SDS011;15077;49.704;9.908;2023-01-08T02:53:12;6.78;;;5.43;;
27670;SDS011;15077;49.704;9.908;2023-01-08T02:56:08;5.55;;;3.58;;
27670;SDS011;15077;49.704;9.908;2023-01-08T02:58:39;4.40;;;3.13;;
27670;SDS011;15077;49.704;9.908;2023-01-08T03:01:07;3.55;;;2.55;;
27670;SDS011;15077;49.704;9.908;2023-01-08T03:03:36;4.03;;;2.70;;
27670;SDS011;15077;49.704;9.908;2023-01-08T03:06:08;4.30;;;2.92;;
27670;SDS011;15077;49.704;9.908;2023-01-08T03:08:40;6.85;;;4.10;;
27670;SDS011;15077;49.704;9.908;2023-01-08T03:11:10;6.07;;;4.43;;
27670;SDS011;15077;49.704;9.908;2023-01-08T03:19:16;6.38;;;4.60;;
27670;SDS011;15077;49.704;9.908;2023-01-08T03:21:50;5.05;;;4.00;;
27670;SDS011;15077;49.704;9.908;2023-01-08T03:24:17;5.07;;;4.47;;
27670;SDS011;15077;49.704;9.908;2023-01-08T03:26:52;6.32;;;4.53;;
27670;SDS011;15077;49.704;9.908;2023-01-08T03:29:23;5.17;;;4.00;;
27670;SDS011;15077;49.704;9.908;2023-01-08T03:31:52;7.47;;;5.38;;
27670;SDS011;15077;49.704;9.908;2023-01-08T03:34:22;6.43;;;4.30;;
27670;SDS011;15077;49.704;9.908;2023-01-08T03:36:52;5.72;;;4.30;;
27670;SDS011;15077;49.704;9.908;2023-01-08T03:39:34;9.02;;;4.22;;
27670;SDS011;15077;49.704;9.908;2023-01-08T03:42:08;6.40;;;4.22;;
27670;SDS011;15077;49.704;9.908;2023-01-08T03:44:37;5.47;;;4.25;;
27670;SDS011;15077;49.704;9.908;2023-01-08T03:47:03;5.68;;;4.03;;
27670;SDS011;15077;49.704;9.908;2023-01-08T03:49:32;6.25;;;3.90;;
27670;SDS011;15077;49.704;9.908;2023-01-08T03:51:59;5.18;;;3.90;;
27670;SDS011;15077;49.704;9.908;2023-01-08T03:54:28;4.97;;;3.83;;
27670;SDS011;15077;49.704;9.908;2023-01-08T03:56:56;4.72;;;2.80;;
27670;SDS011;15077;49.704;9.908;2023-01-08T03:59:22;4.38;;;2.85;;
27670;SDS011;15077;49.704;9.908;2023-01-08T04:02:07;6.03;;;3.42;;
27670;SDS011;15077;49.704;9.908;2023-01-08T04:04:33;5.03;;;3.78;;
27670;SDS011;15077;49.704;9.908;2023-01-08T04:06:59;4.70;;;3.45;;
27670;SDS011;15077;49.704;9.908;2023-01-08T04:09:24;4.32;;;3.20;;
27670;SDS011;15077;49.704;9.908;2023-01-08T04:11:50;4.07;;;3.00;;
27670;SDS011;15077;49.704;9.908;2023-01-08T04:14:16;6.15;;;3.08;;
27670;SDS011;15077;49.704;9.908;2023-01-08T04:16:43;5.60;;;4.13;;
27670;SDS011;15077;49.704;9.908;2023-01-08T04:19:12;4.85;;;3.58;;
27670;SDS011;15077;49.704;9.908;2023-01-08T04:21:38;4.28;;;3.20;;
27670;SDS011;15077;49.704;9.908;2023-01-08T04:24:04;4.57;;;2.85;;
27670;SDS011;15077;49.704;9.908;2023-01-08T04:26:31;4.78;;;2.75;;
27670;SDS011;15077;49.704;9.908;2023-01-08T04:28:57;5.00;;;3.20;;
27670;SDS011;15077;49.704;9.908;2023-01-08T04:31:22;3.50;;;2.65;;
27670;SDS011;15077;49.704;9.908;2023-01-08T04:33:48;3.63;;;2.90;;
27670;SDS011;15077;49.704;9.908;2023-01-08T04:36:14;3.95;;;2.97;;
27670;SDS011;15077;49.704;9.908;2023-01-08T04:38:40;3.15;;;2.65;;
27670;SDS011;15077;49.704;9.908;2023-01-08T04:41:06;4.40;;;2.80;;
27670;SDS011;15077;49.704;9.908;2023-01-08T04:43:32;3.15;;;2.03;;
27670;SDS011;15077;49.704;9.908;2023-01-08T04:46:02;4.07;;;2.80;;
27670;SDS011;15077;49.704;9.908;2023-01-08T04:48:32;6.88;;;3.70;;
27670;SDS011;15077;49.704;9.908;2023-01-08T04:50:59;3.75;;;2.72;;
27670;SDS011;15077;49.704;9.908;2023-01-08T04:53:27;5.50;;;3.13;;
27670;SDS011;15077;49.704;9.908;2023-01-08T04:56:01;4.40;;;2.92;;
27670;SDS011;15077;49.704;9.908;2023-01-08T04:58:33;4.75;;;3.17;;
27670;SDS011;15077;49.704;9.908;2023-01-08T05:01:00;3.95;;;2.40;;
27670;SDS011;15077;49.704;9.908;2023-01-08T05:03:36;3.78;;;2.50;;
27670;SDS011;15077;49.704;9.908;2023-01-08T05:06:02;4.03;;;3.25;;
27670;SDS011;15077;49.704;9.908;2023-01-08T05:08:28;4.40;;;3.10;;
27670;SDS011;15077;49.704;9.908;2023-01-08T05:10:53;2.97;;;2.10;;
27670;SDS011;15077;49.704;9.908;2023-01-08T05:13:23;4.40;;;2.53;;
27670;SDS011;15077;49.704;9.908;2023-01-08T05:15:49;2.95;;;2.42;;
27670;SDS011;15077;49.704;9.908;2023-01-08T05:18:15;2.72;;;1.95;;
27670;SDS011;15077;49.704;9.908;2023-01-08T05:20:41;3.45;;;2.50;;
27670;SDS011;15077;49.704;9.908;2023-01-08T05:23:07;4.95;;;2.85;;
27670;SDS011;15077;49.704;9.908;2023-01-08T05:25:33;3.20;;;2.42;;
27670;SDS011;15077;49.704;9.908;2023-01-08T05:27:59;3.65;;;2.40;;
27670;SDS011;15077;49.704;9.908;2023-01-08T05:30:25;4.00;;;2.72;;
27670;SDS011;15077;49.704;9.908;2023-01-08T05:32:51;3.67;;;2.38;;
27670;SDS011;15077;49.704;9.908;2023-01-08T05:35:17;3.42;;;2.72;;
27670;SDS011;15077;49.704;9.908;2023-01-08T05:37:43;3.75;;;2.67;;
27670;SDS011;15077;49.704;9.908;2023-01-08T05:40:09;3.85;;;2.60;;
27670;SDS011;15077;49.704;9.908;2023-01-08T05:42:35;4.38;;;2.85;;
27670;SDS011;15077;49.704;9.908;2023-01-08T05:45:02;5.28;;;3.70;;
27670;SDS011;15077;49.704;9.908;2023-01-08T05:47:30;4.65;;;3.20;;
27670;SDS011;15077;49.704;9.908;2023-01-08T05:49:57;4.65;;;3.28;;
27670;SDS011;15077;49.704;9.908;2023-01-08T05:52:23;3.65;;;3.03;;
27670;SDS011;15077;49.704;9.908;2023-01-08T05:54:49;3.83;;;2.92;;
27670;SDS011;15077;49.704;9.908;2023-01-08T05:57:15;4.15;;;3.13;;
27670;SDS011;15077;49.704;9.908;2023-01-08T05:59:41;3.50;;;3.00;;
27670;SDS011;15077;49.704;9.908;2023-01-08T06:02:07;5.32;;;3.63;;
27670;SDS011;15077;49.704;9.908;2023-01-08T06:04:33;2.97;;;2.65;;
27670;SDS011;15077;49.704;9.908;2023-01-08T06:06:58;5.30;;;2.45;;
27670;SDS011;15077;49.704;9.908;2023-01-08T06:09:24;4.00;;;2.85;;
27670;SDS011;15077;49.704;9.908;2023-01-08T06:11:50;3.60;;;2.38;;
27670;SDS011;15077;49.704;9.908;2023-01-08T06:14:17;3.97;;;3.17;;
27670;SDS011;15077;49.704;9.908;2023-01-08T06:16:43;3.75;;;2.50;;
27670;SDS011;15077;49.704;9.908;2023-01-08T06:19:09;4.22;;;2.97;;
27670;SDS011;15077;49.704;9.908;2023-01-08T06:21:35;3.13;;;2.72;;
27670;SDS011;15077;49.704;9.908;2023-01-08T06:24:02;3.20;;;2.78;;
27670;SDS011;15077;49.704;9.908;2023-01-08T06:26:28;3.63;;;2.60;;
27670;SDS011;15077;49.704;9.908;2023-01-08T06:28:54;3.95;;;2.60;;
27670;SDS011;15077;49.704;9.908;2023-01-08T06:31:19;5.22;;;3.05;;
27670;SDS011;15077;49.704;9.908;2023-01-08T06:33:45;3.92;;;2.83;;
27670;SDS011;15077;49.704;9.908;2023-01-08T06:36:10;5.57;;;3.30;;
27670;SDS011;15077;49.704;9.908;2023-01-08T06:38:36;3.50;;;2.40;;
27670;SDS011;15077;49.704;9.908;2023-01-08T06:41:06;3.75;;;2.42;;
27670;SDS011;15077;49.704;9.908;2023-01-08T06:43:34;4.20;;;3.10;;
27670;SDS011;15077;49.704;9.908;2023-01-08T06:46:01;4.13;;;2.90;;
27670;SDS011;15077;49.704;9.908;2023-01-08T06:48:30;4.07;;;3.00;;
27670;SDS011;15077;49.704;9.908;2023-01-08T06:50:58;4.57;;;2.70;;
27670;SDS011;15077;49.704;9.908;2023-01-08T06:53:25;3.75;;;2.45;;
27670;SDS011;15077;49.704;9.908;2023-01-08T06:55:50;3.55;;;2.35;;
27670;SDS011;15077;49.704;9.908;2023-01-08T06:58:21;4.07;;;2.80;;
27670;SDS011;15077;49.704;9.908;2023-01-08T07:00:48;3.70;;;2.72;;
27670;SDS011;15077;49.704;9.908;2023-01-08T07:03:14;3.10;;;1.95;;
27670;SDS011;15077;49.704;9.908;2023-01-08T07:05:39;3.22;;;1.65;;
27670;SDS011;15077;49.704;9.908;2023-01-08T07:08:05;3.03;;;1.88;;
27670;SDS011;15077;49.704;9.908;2023-01-08T07:10:35;2.17;;;1.48;;
27670;SDS011;15077;49.704;9.908;2023-01-08T07:13:03;2.15;;;1.75;;
27670;SDS011;15077;49.704;9.908;2023-01-08T07:15:29;2.78;;;2.00;;
27670;SDS011;15077;49.704;9.908;2023-01-08T07:17:55;3.72;;;2.10;;
27670;SDS011;15077;49.704;9.908;2023-01-08T07:20:20;3.70;;;2.50;;
27670;SDS011;15077;49.704;9.908;2023-01-08T07:22:46;3.42;;;2.40;;
27670;SDS011;15077;49.704;9.908;2023-01-08T07:25:11;3.45;;;2.10;;
27670;SDS011;15077;49.704;9.908;2023-01-08T07:27:37;2.70;;;2.30;;
27670;SDS011;15077;49.704;9.908;2023-01-08T07:30:03;4.22;;;3.00;;
27670;SDS011;15077;49.704;9.908;2023-01-08T07:32:29;5.57;;;4.00;;
27670;SDS011;15077;49.704;9.908;2023-01-08T07:34:55;5.82;;;3.80;;
27670;SDS011;15077;49.704;9.908;2023-01-08T07:37:23;5.97;;;4.38;;
27670;SDS011;15077;49.704;9.908;2023-01-08T07:39:50;6.13;;;4.28;;
27670;SDS011;15077;49.704;9.908;2023-01-08T07:42:17;7.25;;;4.28;;
27670;SDS011;15077;49.704;9.908;2023-01-08T07:44:43;5.57;;;3.90;;
27670;SDS011;15077;49.704;9.908;2023-01-08T07:47:09;4.70;;;3.20;;
27670;SDS011;15077;49.704;9.908;2023-01-08T07:49:35;5.30;;;3.03;;
27670;SDS011;15077;49.704;9.908;2023-01-08T07:52:00;5.22;;;3.60;;
27670;SDS011;15077;49.704;9.908;2023-01-08T07:54:26;6.13;;;3.92;;
27670;SDS011;15077;49.704;9.908;2023-01-08T07:56:55;5.53;;;4.50;;
27670;SDS011;15077;49.704;9.908;2023-01-08T07:59:20;5.50;;;3.60;;
27670;SDS011;15077;49.704;9.908;2023-01-08T08:01:46;5.32;;;3.80;;
27670;SDS011;15077;49.704;9.908;2023-01-08T08:04:15;9.77;;;5.15;;
27670;SDS011;15077;49.704;9.908;2023-01-08T08:06:41;7.38;;;5.40;;
27670;SDS011;15077;49.704;9.908;2023-01-08T08:09:06;8.77;;;7.90;;
27670;SDS011;15077;49.704;9.908;2023-01-08T08:11:32;9.55;;;7.45;;
27670;SDS011;15077;49.704;9.908;2023-01-08T08:13:58;9.98;;;8.10;;
27670;SDS011;15077;49.704;9.908;2023-01-08T08:16:24;5.70;;;5.10;;
27670;SDS011;15077;49.704;9.908;2023-01-08T08:18:49;6.38;;;4.47;;
27670;SDS011;15077;49.704;9.908;2023-01-08T08:21:15;6.28;;;4.45;;
27670;SDS011;15077;49.704;9.908;2023-01-08T08:23:41;5.50;;;3.65;;
27670;SDS011;15077;49.704;9.908;2023-01-08T08:26:06;5.03;;;4.03;;
27670;SDS011;15077;49.704;9.908;2023-01-08T08:28:32;6.78;;;4.68;;
27670;SDS011;15077;49.704;9.908;2023-01-08T08:30:58;7.65;;;5.63;;
27670;SDS011;15077;49.704;9.908;2023-01-08T08:33:23;6.57;;;4.30;;
27670;SDS011;15077;49.704;9.908;2023-01-08T08:35:49;5.38;;;4.00;;
27670;SDS011;15077;49.704;9.908;2023-01-08T08:38:16;5.43;;;4.00;;
27670;SDS011;15077;49.704;9.908;2023-01-08T08:40:42;4.47;;;3.97;;
27670;SDS011;15077;49.704;9.908;2023-01-08T08:43:08;6.07;;;3.85;;
27670;SDS011;15077;49.704;9.908;2023-01-08T08:45:34;5.68;;;3.40;;
27670;SDS011;15077;49.704;9.908;2023-01-08T08:48:01;3.08;;;2.45;;
27670;SDS011;15077;49.704;9.908;2023-01-08T08:50:29;4.60;;;3.25;;
27670;SDS011;15077;49.704;9.908;2023-01-08T08:53:01;4.03;;;3.17;;
27670;SDS011;15077;49.704;9.908;2023-01-08T08:55:30;5.03;;;4.07;;
27670;SDS011;15077;49.704;9.908;2023-01-08T08:58:07;6.32;;;4.50;;
27670;SDS011;15077;49.704;9.908;2023-01-08T09:00:37;6.15;;;5.43;;
27670;SDS011;15077;49.704;9.908;2023-01-08T09:03:05;19.25;;;14.68;;
27670;SDS011;15077;49.704;9.908;2023-01-08T09:05:34;33.15;;;26.63;;
27670;SDS011;15077;49.704;9.908;2023-01-08T09:08:00;20.70;;;17.05;;
27670;SDS011;15077;49.704;9.908;2023-01-08T09:10:26;16.77;;;13.65;;
27670;SDS011;15077;49.704;9.908;2023-01-08T09:12:52;13.02;;;10.88;;
27670;SDS011;15077;49.704;9.908;2023-01-08T09:15:18;8.50;;;7.18;;
27670;SDS011;15077;49.704;9.908;2023-01-08T09:17:50;3.95;;;3.33;;
27670;SDS011;15077;49.704;9.908;2023-01-08T09:20:21;4.00;;;3.70;;
27670;SDS011;15077;49.704;9.908;2023-01-08T09:22:48;7.93;;;4.80;;
27670;SDS011;15077;49.704;9.908;2023-01-08T09:25:14;2.45;;;2.00;;
27670;SDS011;15077;49.704;9.908;2023-01-08T09:27:40;2.97;;;2.17;;
27670;SDS011;15077;49.704;9.908;2023-01-08T09:30:06;4.78;;;2.90;;
27670;SDS011;15077;49.704;9.908;2023-01-08T09:32:33;10.43;;;6.90;;
27670;SDS011;15077;49.704;9.908;2023-01-08T09:34:58;6.53;;;4.90;;
27670;SDS011;15077;49.704;9.908;2023-01-08T09:37:24;8.50;;;7.72;;
27670;SDS011;15077;49.704;9.908;2023-01-08T09:39:50;5.10;;;4.70;;
27670;SDS011;15077;49.704;9.908;2023-01-08T09:42:18;4.63;;;3.05;;
27670;SDS011;15077;49.704;9.908;2023-01-08T09:44:48;4.32;;;2.55;;
27670;SDS011;15077;49.704;9.908;2023-01-08T09:47:23;2.15;;;1.92;;
27670;SDS011;15077;49.704;9.908;2023-01-08T09:52:31;6.05;;;3.83;;
27670;SDS011;15077;49.704;9.908;2023-01-08T09:54:57;3.85;;;3.10;;
27670;SDS011;15077;49.704;9.908;2023-01-08T09:57:26;2.85;;;1.73;;
27670;SDS011;15077;49.704;9.908;2023-01-08T09:59:53;2.88;;;1.67;;
27670;SDS011;15077;49.704;9.908;2023-01-08T10:02:20;3.20;;;1.70;;
27670;SDS011;15077;49.704;9.908;2023-01-08T10:04:52;3.40;;;1.80;;
27670;SDS011;15077;49.704;9.908;2023-01-08T10:07:25;2.97;;;1.60;;
27670;SDS011;15077;49.704;9.908;2023-01-08T10:09:53;4.20;;;3.38;;
27670;SDS011;15077;49.704;9.908;2023-01-08T10:14:55;1.52;;;1.30;;
27670;SDS011;15077;49.704;9.908;2023-01-08T10:17:39;2.83;;;1.90;;
27670;SDS011;15077;49.704;9.908;2023-01-08T10:20:11;8.35;;;5.10;;
27670;SDS011;15077;49.704;9.908;2023-01-08T10:22:40;2.72;;;2.15;;
27670;SDS011;15077;49.704;9.908;2023-01-08T10:25:11;10.13;;;6.40;;
27670;SDS011;15077;49.704;9.908;2023-01-08T10:27:50;3.45;;;2.33;;
27670;SDS011;15077;49.704;9.908;2023-01-08T10:30:35;2.28;;;1.48;;
27670;SDS011;15077;49.704;9.908;2023-01-08T10:33:04;2.20;;;1.27;;
27670;SDS011;15077;49.704;9.908;2023-01-08T10:35:49;1.63;;;1.10;;
27670;SDS011;15077;49.704;9.908;2023-01-08T10:38:32;1.80;;;1.30;;
27670;SDS011;15077;49.704;9.908;2023-01-08T10:41:02;3.38;;;2.30;;
27670;SDS011;15077;49.704;9.908;2023-01-08T10:43:35;2.60;;;1.48;;
27670;SDS011;15077;49.704;9.908;2023-01-08T10:48:56;2.67;;;2.22;;
27670;SDS011;15077;49.704;9.908;2023-01-08T10:51:27;1.65;;;1.25;;
27670;SDS011;15077;49.704;9.908;2023-01-08T10:53:57;2.42;;;1.63;;
27670;SDS011;15077;49.704;9.908;2023-01-08T10:56:40;8.25;;;4.00;;
27670;SDS011;15077;49.704;9.908;2023-01-08T10:59:21;17.67;;;8.35;;
27670;SDS011;15077;49.704;9.908;2023-01-08T11:01:49;60.03;;;22.45;;
27670;SDS011;15077;49.704;9.908;2023-01-08T11:04:27;34.63;;;19.13;;
27670;SDS011;15077;49.704;9.908;2023-01-08T11:06:58;13.45;;;8.55;;
27670;SDS011;15077;49.704;9.908;2023-01-08T11:09:29;9.93;;;6.10;;
27670;SDS011;15077;49.704;9.908;2023-01-08T11:12:02;8.90;;;7.30;;
27670;SDS011;15077;49.704;9.908;2023-01-08T11:14:37;6.55;;;3.97;;
27670;SDS011;15077;49.704;9.908;2023-01-08T11:17:10;10.52;;;4.15;;
27670;SDS011;15077;49.704;9.908;2023-01-08T11:19:36;11.45;;;5.30;;
27670;SDS011;15077;49.704;9.908;2023-01-08T11:22:16;43.85;;;18.98;;
27670;SDS011;15077;49.704;9.908;2023-01-08T11:24:49;28.48;;;10.90;;
27670;SDS011;15077;49.704;9.908;2023-01-08T11:27:36;47.53;;;14.68;;
27670;SDS011;15077;49.704;9.908;2023-01-08T11:35:16;87.43;;;28.90;;
27670;SDS011;15077;49.704;9.908;2023-01-08T11:38:33;105.85;;;41.70;;
27670;SDS011;15077;49.704;9.908;2023-01-08T11:41:04;68.38;;;28.33;;
27670;SDS011;15077;49.704;9.908;2023-01-08T11:44:08;46.05;;;21.40;;
27670;SDS011;15077;49.704;9.908;2023-01-08T11:46:47;31.70;;;15.23;;
27670;SDS011;15077;49.704;9.908;2023-01-08T11:50:12;16.02;;;8.02;;
27670;SDS011;15077;49.704;9.908;2023-01-08T11:58:43;4.25;;;1.70;;
27670;SDS011;15077;49.704;9.908;2023-01-08T12:07:18;3.80;;;2.53;;
27670;SDS011;15077;49.704;9.908;2023-01-08T12:10:01;3.88;;;1.95;;
27670;SDS011;15077;49.704;9.908;2023-01-08T12:13:53;4.20;;;2.08;;
27670;SDS011;15077;49.704;9.908;2023-01-08T12:30:16;2.80;;;2.00;;
27670;SDS011;15077;49.704;9.908;2023-01-08T12:36:50;6.38;;;3.85;;
27670;SDS011;15077;49.704;9.908;2023-01-08T12:39:28;35.00;;;20.35;;
27670;SDS011;15077;49.704;9.908;2023-01-08T12:42:04;40.42;;;20.05;;
27670;SDS011;15077;49.704;9.908;2023-01-08T12:44:48;46.25;;;20.88;;
27670;SDS011;15077;49.704;9.908;2023-01-08T12:47:19;16.52;;;10.27;;
27670;SDS011;15077;49.704;9.908;2023-01-08T12:49:55;7.78;;;4.95;;
27670;SDS011;15077;49.704;9.908;2023-01-08T12:53:01;5.22;;;3.20;;
27670;SDS011;15077;49.704;9.908;2023-01-08T12:55:51;4.60;;;1.90;;
27670;SDS011;15077;49.704;9.908;2023-01-08T13:03:47;2.28;;;1.20;;
27670;SDS011;15077;49.704;9.908;2023-01-08T13:06:14;3.25;;;1.60;;
27670;SDS011;15077;49.704;9.908;2023-01-08T13:08:44;4.78;;;3.15;;
27670;SDS011;15077;49.704;9.908;2023-01-08T13:16:33;2.72;;;1.77;;
27670;SDS011;15077;49.704;9.908;2023-01-08T13:19:23;2.30;;;1.98;;
27670;SDS011;15077;49.704;9.908;2023-01-08T13:21:58;2.92;;;2.10;;
27670;SDS011;15077;49.704;9.908;2023-01-08T13:24:29;2.95;;;1.77;;
27670;SDS011;15077;49.704;9.908;2023-01-08T13:29:42;2.33;;;1.60;;
27670;SDS011;15077;49.704;9.908;2023-01-08T13:37:39;2.35;;;1.50;;
27670;SDS011;15077;49.704;9.908;2023-01-08T13:43:30;3.30;;;2.00;;
27670;SDS011;15077;49.704;9.908;2023-01-08T13:46:11;4.30;;;2.80;;
27670;SDS011;15077;49.704;9.908;2023-01-08T13:48:49;4.07;;;2.60;;
27670;SDS011;15077;49.704;9.908;2023-01-08T13:56:38;3.10;;;2.60;;
27670;SDS011;15077;49.704;9.908;2023-01-08T13:59:06;2.67;;;1.70;;
27670;SDS011;15077;49.704;9.908;2023-01-08T14:02:02;2.60;;;1.73;;
27670;SDS011;15077;49.704;9.908;2023-01-08T14:04:49;1.67;;;1.10;;
27670;SDS011;15077;49.704;9.908;2023-01-08T14:07:16;1.85;;;1.30;;
27670;SDS011;15077;49.704;9.908;2023-01-08T14:09:42;1.70;;;1.00;;
27670;SDS011;15077;49.704;9.908;2023-01-08T14:12:12;2.33;;;1.40;;
27670;SDS011;15077;49.704;9.908;2023-01-08T14:14:46;3.20;;;2.42;;
27670;SDS011;15077;49.704;9.908;2023-01-08T14:17:21;6.53;;;4.45;;
27670;SDS011;15077;49.704;9.908;2023-01-08T14:19:54;7.00;;;3.88;;
27670;SDS011;15077;49.704;9.908;2023-01-08T14:22:28;4.50;;;3.08;;
27670;SDS011;15077;49.704;9.908;2023-01-08T14:24:59;5.03;;;2.40;;
27670;SDS011;15077;49.704;9.908;2023-01-08T14:29:56;3.92;;;3.53;;
27670;SDS011;15077;49.704;9.908;2023-01-08T14:32:24;2.58;;;2.10;;
27670;SDS011;15077;49.704;9.908;2023-01-08T14:34:53;4.00;;;2.05;;
27670;SDS011;15077;49.704;9.908;2023-01-08T14:37:23;2.40;;;1.40;;
27670;SDS011;15077;49.704;9.908;2023-01-08T14:39:49;5.30;;;2.65;;
27670;SDS011;15077;49.704;9.908;2023-01-08T14:42:32;12.88;;;6.97;;
27670;SDS011;15077;49.704;9.908;2023-01-08T14:45:27;8.95;;;5.25;;
27670;SDS011;15077;49.704;9.908;2023-01-08T14:48:00;21.30;;;13.35;;
27670;SDS011;15077;49.704;9.908;2023-01-08T14:50:58;16.67;;;9.38;;
27670;SDS011;15077;49.704;9.908;2023-01-08T14:53:33;12.52;;;8.30;;
27670;SDS011;15077;49.704;9.908;2023-01-08T14:56:11;5.88;;;4.13;;
27670;SDS011;15077;49.704;9.908;2023-01-08T14:58:42;5.00;;;2.90;;
27670;SDS011;15077;49.704;9.908;2023-01-08T15:01:17;2.80;;;1.63;;
27670;SDS011;15077;49.704;9.908;2023-01-08T15:03:48;2.03;;;1.33;;
27670;SDS011;15077;49.704;9.908;2023-01-08T15:06:25;2.00;;;1.52;;
27670;SDS011;15077;49.704;9.908;2023-01-08T15:08:56;1.33;;;0.82;;
27670;SDS011;15077;49.704;9.908;2023-01-08T15:11:24;2.53;;;1.50;;
27670;SDS011;15077;49.704;9.908;2023-01-08T15:13:56;1.42;;;1.05;;
27670;SDS011;15077;49.704;9.908;2023-01-08T15:19:09;3.67;;;2.55;;
27670;SDS011;15077;49.704;9.908;2023-01-08T15:21:45;3.22;;;2.22;;
27670;SDS011;15077;49.704;9.908;2023-01-08T15:26:55;3.50;;;2.20;;
27670;SDS011;15077;49.704;9.908;2023-01-08T15:29:29;5.07;;;3.35;;
27670;SDS011;15077;49.704;9.908;2023-01-08T15:35:03;5.50;;;3.10;;
27670;SDS011;15077;49.704;9.908;2023-01-08T15:37:42;4.38;;;1.98;;
27670;SDS011;15077;49.704;9.908;2023-01-08T15:40:08;4.20;;;2.38;;
27670;SDS011;15077;49.704;9.908;2023-01-08T15:42:36;5.32;;;2.30;;
27670;SDS011;15077;49.704;9.908;2023-01-08T15:45:24;3.72;;;1.60;;
27670;SDS011;15077;49.704;9.908;2023-01-08T15:47:53;3.22;;;1.58;;
27670;SDS011;15077;49.704;9.908;2023-01-08T15:50:19;2.78;;;1.20;;
27670;SDS011;15077;49.704;9.908;2023-01-08T15:52:45;3.70;;;1.70;;
27670;SDS011;15077;49.704;9.908;2023-01-08T15:55:15;4.50;;;2.00;;
27670;SDS011;15077;49.704;9.908;2023-01-08T15:57:44;6.47;;;2.45;;
27670;SDS011;15077;49.704;9.908;2023-01-08T16:00:13;2.03;;;1.30;;
27670;SDS011;15077;49.704;9.908;2023-01-08T16:02:45;1.90;;;1.02;;
27670;SDS011;15077;49.704;9.908;2023-01-08T16:05:16;3.58;;;1.50;;
27670;SDS011;15077;49.704;9.908;2023-01-08T16:07:44;5.75;;;2.00;;
27670;SDS011;15077;49.704;9.908;2023-01-08T16:10:11;4.78;;;2.20;;
27670;SDS011;15077;49.704;9.908;2023-01-08T16:12:41;3.63;;;1.48;;
27670;SDS011;15077;49.704;9.908;2023-01-08T16:15:10;8.48;;;4.00;;
27670;SDS011;15077;49.704;9.908;2023-01-08T16:17:38;5.82;;;2.63;;
27670;SDS011;15077;49.704;9.908;2023-01-08T16:20:04;5.03;;;2.63;;
27670;SDS011;15077;49.704;9.908;2023-01-08T16:22:31;5.57;;;1.45;;
27670;SDS011;15077;49.704;9.908;2023-01-08T16:24:57;3.20;;;1.55;;
27670;SDS011;15077;49.704;9.908;2023-01-08T16:27:23;5.43;;;1.95;;
27670;SDS011;15077;49.704;9.908;2023-01-08T16:29:49;4.75;;;2.10;;
27670;SDS011;15077;49.704;9.908;2023-01-08T16:32:14;5.20;;;2.80;;
27670;SDS011;15077;49.704;9.908;2023-01-08T16:34:40;8.00;;;4.03;;
27670;SDS011;15077;49.704;9.908;2023-01-08T16:37:06;2.33;;;1.50;;
27670;SDS011;15077;49.704;9.908;2023-01-08T16:39:32;4.28;;;1.92;;
27670;SDS011;15077;49.704;9.908;2023-01-08T16:41:58;3.58;;;1.67;;
27670;SDS011;15077;49.704;9.908;2023-01-08T16:44:24;3.50;;;2.15;;
27670;SDS011;15077;49.704;9.908;2023-01-08T16:46:56;2.20;;;1.30;;
27670;SDS011;15077;49.704;9.908;2023-01-08T16:49:25;2.72;;;1.52;;
27670;SDS011;15077;49.704;9.908;2023-01-08T16:51:50;1.77;;;1.02;;
27670;SDS011;15077;49.704;9.908;2023-01-08T16:54:16;2.30;;;1.25;;
27670;SDS011;15077;49.704;9.908;2023-01-08T16:56:42;1.60;;;1.00;;
27670;SDS011;15077;49.704;9.908;2023-01-08T16:59:08;1.85;;;0.82;;
27670;SDS011;15077;49.704;9.908;2023-01-08T17:01:34;1.85;;;1.27;;